sensor_id;sensor_type;location;lat;lon;timestamp;pressure;altitude;pressure_sealevel;temperature;humidity
4576;BME280;2300;51.874;8.430;2023-09-19T00:01:39;99856.38;;;15.74;100.00
4576;BME280;2300;51.874;8.430;2023-09-19T00:04:07;99859.63;;;15.81;100.00
4576;BME280;2300;51.874;8.430;2023-09-19T00:06:36;99861.59;;;15.80;100.00
4576;BME280;2300;51.874;8.430;2023-09-19T00:09:03;99869.63;;;15.77;100.00
4576;BME280;2300;51.874;8.430;2023-09-19T00:11:30;99867.63;;;15.87;100.00
4576;BME280;2300;51.874;8.430;2023-09-19T00:13:56;99867.94;;;15.81;100.00
4576;BME280;2300;51.874;8.430;2023-09-19T00:16:24;99869.00;;;15.90;100.00
4576;BME280;2300;51.874;8.430;2023-09-19T00:18:51;99874.50;;;15.95;100.00
4576;BME280;2300;51.874;8.430;2023-09-19T00:21:19;99879.47;;;15.93;100.00
4576;BME280;2300;51.874;8.430;2023-09-19T00:23:46;99876.97;;;15.97;100.00
4576;BME280;2300;51.874;8.430;2023-09-19T00:26:12;99881.44;;;15.92;100.00
4576;BME280;2300;51.874;8.430;2023-09-19T00:28:39;99888.88;;;15.97;100.00
4576;BME280;2300;51.874;8.430;2023-09-19T00:31:07;99887.50;;;15.95;100.00
4576;BME280;2300;51.874;8.430;2023-09-19T00:33:34;99887.78;;;15.93;100.00
4576;BME280;2300;51.874;8.430;2023-09-19T00:36:02;99888.88;;;15.97;100.00
4576;BME280;2300;51.874;8.430;2023-09-19T00:38:32;99890.00;;;15.91;100.00
4576;BME280;2300;51.874;8.430;2023-09-19T00:40:58;99886.72;;;15.89;100.00
4576;BME280;2300;51.874;8.430;2023-09-19T00:43:25;99886.41;;;15.96;100.00
4576;BME280;2300;51.874;8.430;2023-09-19T00:45:54;99893.91;;;15.90;100.00
4576;BME280;2300;51.874;8.430;2023-09-19T00:48:21;99893.38;;;15.88;100.00
4576;BME280;2300;51.874;8.430;2023-09-19T00:50:50;99892.28;;;15.84;100.00
4576;BME280;2300;51.874;8.430;2023-09-19T00:53:21;99894.25;;;15.78;100.00
4576;BME280;2300;51.874;8.430;2023-09-19T00:55:49;99900.59;;;15.84;100.00
4576;BME280;2300;51.874;8.430;2023-09-19T00:58:17;99905.28;;;15.83;100.00
4576;BME280;2300;51.874;8.430;2023-09-19T01:00:44;99909.19;;;15.77;100.00
4576;BME280;2300;51.874;8.430;2023-09-19T01:03:11;99907.84;;;15.75;100.00
4576;BME280;2300;51.874;8.430;2023-09-19T01:05:39;99913.84;;;15.87;100.00
4576;BME280;2300;51.874;8.430;2023-09-19T01:08:07;99913.31;;;15.85;100.00
4576;BME280;2300;51.874;8.430;2023-09-19T01:10:41;99912.75;;;15.88;100.00
4576;BME280;2300;51.874;8.430;2023-09-19T01:13:18;99922.22;;;15.77;100.00
4576;BME280;2300;51.874;8.430;2023-09-19T01:15:54;99926.06;;;15.81;100.00
4576;BME280;2300;51.874;8.430;2023-09-19T01:18:29;99918.28;;;15.88;100.00
4576;BME280;2300;51.874;8.430;2023-09-19T01:21:07;99924.13;;;15.81;100.00
4576;BME280;2300;51.874;8.430;2023-09-19T01:23:47;99928.50;;;15.87;100.00
4576;BME280;2300;51.874;8.430;2023-09-19T01:26:30;99932.66;;;15.90;100.00
4576;BME280;2300;51.874;8.430;2023-09-19T01:29:23;99934.88;;;15.88;100.00
4576;BME280;2300;51.874;8.430;2023-09-19T01:32:01;99938.19;;;15.95;100.00
4576;BME280;2300;51.874;8.430;2023-09-19T01:34:43;99941.78;;;15.96;100.00
4576;BME280;2300;51.874;8.430;2023-09-19T01:37:10;99942.09;;;15.89;100.00
4576;BME280;2300;51.874;8.430;2023-09-19T01:39:37;99947.03;;;15.92;99.44
4576;BME280;2300;51.874;8.430;2023-09-19T01:42:10;99939.28;;;15.94;99.23
4576;BME280;2300;51.874;8.430;2023-09-19T01:44:46;99943.75;;;15.90;98.65
4576;BME280;2300;51.874;8.430;2023-09-19T01:47:23;99947.66;;;15.84;98.23
4576;BME280;2300;51.874;8.430;2023-09-19T01:49:56;99953.72;;;15.81;98.41
4576;BME280;2300;51.874;8.430;2023-09-19T01:52:28;99950.75;;;15.72;97.93
4576;BME280;2300;51.874;8.430;2023-09-19T01:55:00;99940.81;;;15.61;97.52
4576;BME280;2300;51.874;8.430;2023-09-19T01:57:35;99963.25;;;15.65;97.06
4576;BME280;2300;51.874;8.430;2023-09-19T02:00:06;99960.94;;;15.82;96.41
4576;BME280;2300;51.874;8.430;2023-09-19T02:02:36;99971.19;;;15.76;95.71
4576;BME280;2300;51.874;8.430;2023-09-19T02:05:04;99979.81;;;15.70;95.24
4576;BME280;2300;51.874;8.430;2023-09-19T02:07:32;99975.66;;;15.67;94.75
4576;BME280;2300;51.874;8.430;2023-09-19T02:09:59;99936.81;;;15.28;94.83
4576;BME280;2300;51.874;8.430;2023-09-19T02:12:26;99979.31;;;15.58;94.89
4576;BME280;2300;51.874;8.430;2023-09-19T02:14:52;99987.88;;;15.56;94.88
4576;BME280;2300;51.874;8.430;2023-09-19T02:17:19;99986.19;;;15.65;95.18
4576;BME280;2300;51.874;8.430;2023-09-19T02:19:47;99990.91;;;15.65;94.44
4576;BME280;2300;51.874;8.430;2023-09-19T02:22:13;99990.38;;;15.58;94.85
4576;BME280;2300;51.874;8.430;2023-09-19T02:24:41;99992.06;;;15.54;95.35
4576;BME280;2300;51.874;8.430;2023-09-19T02:27:08;99963.88;;;15.41;95.18
4576;BME280;2300;51.874;8.430;2023-09-19T02:29:34;99989.84;;;15.50;95.07
4576;BME280;2300;51.874;8.430;2023-09-19T02:32:01;99990.69;;;15.46;95.02
4576;BME280;2300;51.874;8.430;2023-09-19T02:34:28;99997.91;;;15.42;94.81
4576;BME280;2300;51.874;8.430;2023-09-19T02:36:57;99993.75;;;15.39;95.21
4576;BME280;2300;51.874;8.430;2023-09-19T02:39:24;99993.19;;;15.42;94.87
4576;BME280;2300;51.874;8.430;2023-09-19T02:41:50;99997.31;;;15.45;94.60
4576;BME280;2300;51.874;8.430;2023-09-19T02:44:17;99963.34;;;15.24;94.75
4576;BME280;2300;51.874;8.430;2023-09-19T02:46:45;99984.34;;;15.40;94.38
4576;BME280;2300;51.874;8.430;2023-09-19T02:49:12;99994.56;;;15.40;93.90
4576;BME280;2300;51.874;8.430;2023-09-19T02:51:38;99989.03;;;15.45;93.97
4576;BME280;2300;51.874;8.430;2023-09-19T02:54:07;99990.97;;;15.44;94.02
4576;BME280;2300;51.874;8.430;2023-09-19T02:56:34;100002.03;;;15.44;93.62
4576;BME280;2300;51.874;8.430;2023-09-19T02:59:01;100003.16;;;15.43;93.60
4576;BME280;2300;51.874;8.430;2023-09-19T03:01:28;100011.44;;;15.43;93.88
4576;BME280;2300;51.874;8.430;2023-09-19T03:03:55;99995.94;;;15.47;93.61
4576;BME280;2300;51.874;8.430;2023-09-19T03:06:22;100011.97;;;15.50;93.33
4576;BME280;2300;51.874;8.430;2023-09-19T03:08:49;100014.47;;;15.47;93.24
4576;BME280;2300;51.874;8.430;2023-09-19T03:11:18;100024.47;;;15.38;93.26
4576;BME280;2300;51.874;8.430;2023-09-19T03:13:51;100018.63;;;15.44;93.55
4576;BME280;2300;51.874;8.430;2023-09-19T03:16:18;100015.34;;;15.37;93.39
4576;BME280;2300;51.874;8.430;2023-09-19T03:18:47;100014.22;;;15.38;93.36
4576;BME280;2300;51.874;8.430;2023-09-19T03:21:14;100025.81;;;15.40;93.26
4576;BME280;2300;51.874;8.430;2023-09-19T03:23:40;100028.59;;;15.40;92.96
4576;BME280;2300;51.874;8.430;2023-09-19T03:26:08;100029.44;;;15.31;92.92
4576;BME280;2300;51.874;8.430;2023-09-19T03:28:36;100032.22;;;15.26;92.86
4576;BME280;2300;51.874;8.430;2023-09-19T03:31:04;100032.22;;;15.21;93.43
4576;BME280;2300;51.874;8.430;2023-09-19T03:33:31;100036.94;;;15.15;92.81
4576;BME280;2300;51.874;8.430;2023-09-19T03:35:59;100032.22;;;15.05;93.11
4576;BME280;2300;51.874;8.430;2023-09-19T03:38:27;100028.06;;;15.03;93.08
4576;BME280;2300;51.874;8.430;2023-09-19T03:40:54;100033.59;;;15.03;92.68
4576;BME280;2300;51.874;8.430;2023-09-19T03:43:20;100030.81;;;14.83;93.19
4576;BME280;2300;51.874;8.430;2023-09-19T03:45:48;100030.28;;;14.81;93.01
4576;BME280;2300;51.874;8.430;2023-09-19T03:48:16;100020.06;;;14.71;93.47
4576;BME280;2300;51.874;8.430;2023-09-19T03:50:42;100028.06;;;14.73;93.33
4576;BME280;2300;51.874;8.430;2023-09-19T03:53:09;100023.09;;;14.70;93.28
4576;BME280;2300;51.874;8.430;2023-09-19T03:55:36;100029.47;;;14.70;93.16
4576;BME280;2300;51.874;8.430;2023-09-19T03:58:04;100027.78;;;14.69;92.86
4576;BME280;2300;51.874;8.430;2023-09-19T04:00:30;100027.78;;;14.59;92.96
4576;BME280;2300;51.874;8.430;2023-09-19T04:02:58;100023.94;;;14.60;92.55
4576;BME280;2300;51.874;8.430;2023-09-19T04:05:27;100026.09;;;14.48;92.45
4576;BME280;2300;51.874;8.430;2023-09-19T04:07:54;100027.50;;;14.50;92.51
4576;BME280;2300;51.874;8.430;2023-09-19T04:10:23;100029.13;;;14.46;92.56
4576;BME280;2300;51.874;8.430;2023-09-19T04:12:53;100022.50;;;14.42;92.30
4576;BME280;2300;51.874;8.430;2023-09-19T04:15:20;100028.03;;;14.47;91.75
4576;BME280;2300;51.874;8.430;2023-09-19T04:17:47;100032.19;;;14.40;92.27
4576;BME280;2300;51.874;8.430;2023-09-19T04:20:16;100032.19;;;14.35;92.31
4576;BME280;2300;51.874;8.430;2023-09-19T04:22:44;100036.28;;;14.27;92.19
4576;BME280;2300;51.874;8.430;2023-09-19T04:25:10;100026.06;;;14.28;91.75
4576;BME280;2300;51.874;8.430;2023-09-19T04:27:37;100033.53;;;14.32;91.95
4576;BME280;2300;51.874;8.430;2023-09-19T04:30:05;100031.59;;;14.28;91.58
4576;BME280;2300;51.874;8.430;2023-09-19T04:32:35;100038.47;;;14.25;91.76
4576;BME280;2300;51.874;8.430;2023-09-19T04:35:04;100037.34;;;14.11;91.48
4576;BME280;2300;51.874;8.430;2023-09-19T04:37:33;100053.41;;;14.24;91.63
4576;BME280;2300;51.874;8.430;2023-09-19T04:40:00;100047.84;;;14.09;91.46
4576;BME280;2300;51.874;8.430;2023-09-19T04:42:29;100049.47;;;14.05;91.47
4576;BME280;2300;51.874;8.430;2023-09-19T04:44:56;100054.69;;;14.01;91.59
4576;BME280;2300;51.874;8.430;2023-09-19T04:47:25;100059.06;;;13.97;91.63
4576;BME280;2300;51.874;8.430;2023-09-19T04:49:51;100060.16;;;13.96;91.86
4576;BME280;2300;51.874;8.430;2023-09-19T04:52:18;100064.28;;;13.89;91.95
4576;BME280;2300;51.874;8.430;2023-09-19T04:54:46;100069.28;;;13.97;92.14
4576;BME280;2300;51.874;8.430;2023-09-19T04:57:13;100067.28;;;13.82;92.29
4576;BME280;2300;51.874;8.430;2023-09-19T04:59:40;100069.81;;;13.89;91.91
4576;BME280;2300;51.874;8.430;2023-09-19T05:02:07;100066.97;;;13.78;91.94
4576;BME280;2300;51.874;8.430;2023-09-19T05:04:35;100081.31;;;13.75;91.83
4576;BME280;2300;51.874;8.430;2023-09-19T05:07:02;100086.56;;;13.77;92.06
4576;BME280;2300;51.874;8.430;2023-09-19T05:09:29;100087.94;;;13.74;91.58
4576;BME280;2300;51.874;8.430;2023-09-19T05:12:00;100093.44;;;13.74;91.50
4576;BME280;2300;51.874;8.430;2023-09-19T05:14:27;100095.41;;;13.79;90.79
4576;BME280;2300;51.874;8.430;2023-09-19T05:16:54;100097.28;;;13.73;90.28
4576;BME280;2300;51.874;8.430;2023-09-19T05:19:20;100091.53;;;13.80;90.17
4576;BME280;2300;51.874;8.430;2023-09-19T05:21:47;100091.78;;;13.73;89.96
4576;BME280;2300;51.874;8.430;2023-09-19T05:24:14;100097.63;;;13.77;89.88
4576;BME280;2300;51.874;8.430;2023-09-19T05:26:42;100094.03;;;13.76;89.61
4576;BME280;2300;51.874;8.430;2023-09-19T05:29:10;100101.75;;;13.79;89.44
4576;BME280;2300;51.874;8.430;2023-09-19T05:31:38;100110.31;;;13.78;89.22
4576;BME280;2300;51.874;8.430;2023-09-19T05:34:06;100119.09;;;13.75;89.67
4576;BME280;2300;51.874;8.430;2023-09-19T05:36:33;100126.31;;;13.81;89.33
4576;BME280;2300;51.874;8.430;2023-09-19T05:38:59;100135.41;;;13.76;89.07
4576;BME280;2300;51.874;8.430;2023-09-19T05:41:27;100138.78;;;13.84;88.92
4576;BME280;2300;51.874;8.430;2023-09-19T05:43:53;100135.47;;;13.87;88.59
4576;BME280;2300;51.874;8.430;2023-09-19T05:46:21;100139.63;;;13.94;88.58
4576;BME280;2300;51.874;8.430;2023-09-19T05:48:48;100145.41;;;13.88;88.68
4576;BME280;2300;51.874;8.430;2023-09-19T05:51:15;100144.38;;;13.99;88.14
4576;BME280;2300;51.874;8.430;2023-09-19T05:53:43;100146.00;;;13.95;87.82
4576;BME280;2300;51.874;8.430;2023-09-19T05:56:09;100152.38;;;14.00;88.21
4576;BME280;2300;51.874;8.430;2023-09-19T05:58:36;100152.16;;;14.07;87.86
4576;BME280;2300;51.874;8.430;2023-09-19T06:01:03;100101.66;;;13.64;87.54
4576;BME280;2300;51.874;8.430;2023-09-19T06:03:33;100164.88;;;14.08;87.51
4576;BME280;2300;51.874;8.430;2023-09-19T06:06:00;100167.06;;;14.06;87.50
4576;BME280;2300;51.874;8.430;2023-09-19T06:08:27;100169.88;;;14.16;86.90
4576;BME280;2300;51.874;8.430;2023-09-19T06:10:54;100164.69;;;14.25;86.80
4576;BME280;2300;51.874;8.430;2023-09-19T06:13:21;100175.78;;;14.35;86.00
4576;BME280;2300;51.874;8.430;2023-09-19T06:15:48;100168.34;;;14.40;86.09
4576;BME280;2300;51.874;8.430;2023-09-19T06:18:15;100166.69;;;14.44;85.37
4576;BME280;2300;51.874;8.430;2023-09-19T06:20:46;100160.66;;;14.52;85.32
4576;BME280;2300;51.874;8.430;2023-09-19T06:23:13;100159.31;;;14.65;84.96
4576;BME280;2300;51.874;8.430;2023-09-19T06:25:40;100161.25;;;14.70;84.65
4576;BME280;2300;51.874;8.430;2023-09-19T06:28:08;100151.03;;;14.70;84.36
4576;BME280;2300;51.874;8.430;2023-09-19T06:30:37;100160.72;;;14.83;84.22
4576;BME280;2300;51.874;8.430;2023-09-19T06:33:05;100161.28;;;14.85;83.68
4576;BME280;2300;51.874;8.430;2023-09-19T06:35:33;100148.84;;;14.82;83.69
4576;BME280;2300;51.874;8.430;2023-09-19T06:38:04;100166.84;;;14.95;83.91
4576;BME280;2300;51.874;8.430;2023-09-19T06:40:31;100168.75;;;14.89;83.59
4576;BME280;2300;51.874;8.430;2023-09-19T06:42:58;100175.69;;;14.87;83.95
4576;BME280;2300;51.874;8.430;2023-09-19T06:45:27;100173.44;;;14.84;83.61
4576;BME280;2300;51.874;8.430;2023-09-19T06:47:53;100176.78;;;14.86;83.67
4576;BME280;2300;51.874;8.430;2023-09-19T06:50:23;100183.97;;;14.92;83.94
4576;BME280;2300;51.874;8.430;2023-09-19T06:52:51;100176.25;;;14.99;84.02
4576;BME280;2300;51.874;8.430;2023-09-19T06:55:21;100181.22;;;14.97;84.06
4576;BME280;2300;51.874;8.430;2023-09-19T06:57:50;100181.22;;;14.97;83.83
4576;BME280;2300;51.874;8.430;2023-09-19T07:00:19;100182.06;;;14.92;84.10
4576;BME280;2300;51.874;8.430;2023-09-19T07:02:55;100177.31;;;14.83;84.55
4576;BME280;2300;51.874;8.430;2023-09-19T07:05:21;100181.22;;;14.92;84.21
4576;BME280;2300;51.874;8.430;2023-09-19T07:07:48;100187.28;;;14.99;84.31
4576;BME280;2300;51.874;8.430;2023-09-19T07:10:14;100177.31;;;14.93;83.96
4576;BME280;2300;51.874;8.430;2023-09-19T07:12:42;100190.06;;;14.94;84.64
4576;BME280;2300;51.874;8.430;2023-09-19T07:15:09;100192.81;;;14.94;84.54
4576;BME280;2300;51.874;8.430;2023-09-19T07:17:36;100193.91;;;14.93;84.26
4576;BME280;2300;51.874;8.430;2023-09-19T07:20:03;100206.66;;;15.04;84.53
4576;BME280;2300;51.874;8.430;2023-09-19T07:22:34;100218.81;;;15.03;84.72
4576;BME280;2300;51.874;8.430;2023-09-19T07:25:01;100208.31;;;15.05;84.32
4576;BME280;2300;51.874;8.430;2023-09-19T07:27:28;100216.34;;;15.06;84.38
4576;BME280;2300;51.874;8.430;2023-09-19T07:29:56;100212.81;;;15.21;84.45
4576;BME280;2300;51.874;8.430;2023-09-19T07:32:24;100215.88;;;15.35;84.49
4576;BME280;2300;51.874;8.430;2023-09-19T07:34:51;100224.16;;;15.45;83.13
4576;BME280;2300;51.874;8.430;2023-09-19T07:37:18;100224.16;;;15.45;82.72
4576;BME280;2300;51.874;8.430;2023-09-19T07:39:44;100218.09;;;15.58;82.32
4576;BME280;2300;51.874;8.430;2023-09-19T07:42:11;100228.91;;;15.65;82.73
4576;BME280;2300;51.874;8.430;2023-09-19T07:44:43;100224.16;;;15.60;82.43
4576;BME280;2300;51.874;8.430;2023-09-19T07:47:14;100225.31;;;15.64;81.87
4576;BME280;2300;51.874;8.430;2023-09-19T07:49:40;100225.84;;;15.76;82.21
4576;BME280;2300;51.874;8.430;2023-09-19T07:52:08;100218.38;;;15.72;81.64
4576;BME280;2300;51.874;8.430;2023-09-19T07:54:34;100223.38;;;15.75;81.17
4576;BME280;2300;51.874;8.430;2023-09-19T07:57:02;100225.28;;;15.89;81.11
4576;BME280;2300;51.874;8.430;2023-09-19T07:59:29;100223.03;;;15.91;80.52
4576;BME280;2300;51.874;8.430;2023-09-19T08:01:56;100223.03;;;16.12;80.75
4576;BME280;2300;51.874;8.430;2023-09-19T08:04:24;100224.19;;;16.11;80.37
4576;BME280;2300;51.874;8.430;2023-09-19T08:06:51;100222.22;;;16.21;80.13
4576;BME280;2300;51.874;8.430;2023-09-19T08:09:18;100221.63;;;16.29;79.96
4576;BME280;2300;51.874;8.430;2023-09-19T08:11:46;100226.56;;;16.38;79.60
4576;BME280;2300;51.874;8.430;2023-09-19T08:14:13;100226.06;;;16.30;79.39
4576;BME280;2300;51.874;8.430;2023-09-19T08:16:40;100227.41;;;16.38;79.53
4576;BME280;2300;51.874;8.430;2023-09-19T08:19:08;100225.50;;;16.33;79.41
4576;BME280;2300;51.874;8.430;2023-09-19T08:21:38;100224.63;;;16.43;79.27
4576;BME280;2300;51.874;8.430;2023-09-19T08:24:04;100222.13;;;16.47;79.15
4576;BME280;2300;51.874;8.430;2023-09-19T08:26:31;100227.34;;;16.58;78.91
4576;BME280;2300;51.874;8.430;2023-09-19T08:28:58;100230.81;;;16.84;79.39
4576;BME280;2300;51.874;8.430;2023-09-19T08:31:30;100237.97;;;16.95;78.71
4576;BME280;2300;51.874;8.430;2023-09-19T08:33:56;100239.94;;;16.90;77.72
4576;BME280;2300;51.874;8.430;2023-09-19T08:36:23;100237.69;;;16.97;77.55
4576;BME280;2300;51.874;8.430;2023-09-19T08:38:51;100248.53;;;16.98;77.41
4576;BME280;2300;51.874;8.430;2023-09-19T08:41:17;100243.50;;;17.05;76.82
4576;BME280;2300;51.874;8.430;2023-09-19T08:43:44;100250.16;;;17.09;77.42
4576;BME280;2300;51.874;8.430;2023-09-19T08:46:15;100251.00;;;17.05;77.06
4576;BME280;2300;51.874;8.430;2023-09-19T08:48:46;100266.00;;;17.04;77.82
4576;BME280;2300;51.874;8.430;2023-09-19T08:51:18;100252.97;;;17.04;77.29
4576;BME280;2300;51.874;8.430;2023-09-19T08:53:51;100250.50;;;16.93;77.34
4576;BME280;2300;51.874;8.430;2023-09-19T08:56:18;100249.56;;;17.12;77.56
4576;BME280;2300;51.874;8.430;2023-09-19T08:58:50;100193.09;;;16.93;77.98
4576;BME280;2300;51.874;8.430;2023-09-19T09:01:18;100250.09;;;17.20;76.93
4576;BME280;2300;51.874;8.430;2023-09-19T09:03:51;100256.16;;;17.22;77.56
4576;BME280;2300;51.874;8.430;2023-09-19T09:06:17;100257.94;;;17.51;77.64
4576;BME280;2300;51.874;8.430;2023-09-19T09:08:46;100265.44;;;17.51;76.48
4576;BME280;2300;51.874;8.430;2023-09-19T09:11:15;100261.50;;;17.52;77.28
4576;BME280;2300;51.874;8.430;2023-09-19T09:13:43;100242.78;;;17.68;76.83
4576;BME280;2300;51.874;8.430;2023-09-19T09:16:10;100259.28;;;17.88;76.50
4576;BME280;2300;51.874;8.430;2023-09-19T09:18:38;100260.88;;;17.99;75.65
4576;BME280;2300;51.874;8.430;2023-09-19T09:21:04;100261.41;;;17.67;74.98
4576;BME280;2300;51.874;8.430;2023-09-19T09:23:31;100254.78;;;17.63;75.73
4576;BME280;2300;51.874;8.430;2023-09-19T09:25:59;100265.16;;;17.86;75.32
4576;BME280;2300;51.874;8.430;2023-09-19T09:28:30;100275.94;;;17.93;75.49
4576;BME280;2300;51.874;8.430;2023-09-19T09:30:59;100261.00;;;17.84;75.57
4576;BME280;2300;51.874;8.430;2023-09-19T09:33:28;100258.31;;;17.74;75.55
4576;BME280;2300;51.874;8.430;2023-09-19T09:35:55;100261.25;;;17.87;75.85
4576;BME280;2300;51.874;8.430;2023-09-19T09:38:25;100254.22;;;17.66;75.49
4576;BME280;2300;51.874;8.430;2023-09-19T09:40:54;100260.00;;;18.03;75.54
4576;BME280;2300;51.874;8.430;2023-09-19T09:43:32;100259.56;;;18.20;73.86
4576;BME280;2300;51.874;8.430;2023-09-19T09:46:13;100261.84;;;18.18;72.83
4576;BME280;2300;51.874;8.430;2023-09-19T09:49:03;100257.00;;;18.00;71.60
4576;BME280;2300;51.874;8.430;2023-09-19T09:51:45;100258.44;;;17.92;72.03
4576;BME280;2300;51.874;8.430;2023-09-19T09:54:14;100256.72;;;18.01;73.13
4576;BME280;2300;51.874;8.430;2023-09-19T09:56:57;100255.69;;;18.21;72.39
4576;BME280;2300;51.874;8.430;2023-09-19T09:59:49;100252.56;;;18.28;71.73
4576;BME280;2300;51.874;8.430;2023-09-19T10:02:17;100249.09;;;18.65;72.00
4576;BME280;2300;51.874;8.430;2023-09-19T10:04:53;100236.09;;;18.60;70.82
4576;BME280;2300;51.874;8.430;2023-09-19T10:07:28;100251.03;;;18.40;70.75
4576;BME280;2300;51.874;8.430;2023-09-19T10:10:00;100237.84;;;18.51;71.64
4576;BME280;2300;51.874;8.430;2023-09-19T10:12:45;100239.25;;;18.72;71.42
4576;BME280;2300;51.874;8.430;2023-09-19T10:15:16;100232.16;;;18.61;70.77
4576;BME280;2300;51.874;8.430;2023-09-19T10:17:46;100244.09;;;18.62;70.27
4576;BME280;2300;51.874;8.430;2023-09-19T10:20:14;100245.66;;;18.49;69.76
4576;BME280;2300;51.874;8.430;2023-09-19T10:22:59;100252.34;;;18.48;69.90
4576;BME280;2300;51.874;8.430;2023-09-19T10:25:27;100255.81;;;18.35;70.07
4576;BME280;2300;51.874;8.430;2023-09-19T10:27:57;100257.34;;;18.46;71.04
4576;BME280;2300;51.874;8.430;2023-09-19T10:30:31;100261.03;;;18.41;70.98
4576;BME280;2300;51.874;8.430;2023-09-19T10:33:04;100245.28;;;18.32;70.53
4576;BME280;2300;51.874;8.430;2023-09-19T10:35:32;100254.50;;;18.51;70.52
4576;BME280;2300;51.874;8.430;2023-09-19T10:38:00;100254.19;;;18.81;70.00
4576;BME280;2300;51.874;8.430;2023-09-19T10:40:28;100241.53;;;18.70;70.21
4576;BME280;2300;51.874;8.430;2023-09-19T10:43:01;100252.72;;;19.08;69.44
4576;BME280;2300;51.874;8.430;2023-09-19T10:45:33;100247.22;;;19.03;68.56
4576;BME280;2300;51.874;8.430;2023-09-19T10:48:01;100260.22;;;19.07;69.50
4576;BME280;2300;51.874;8.430;2023-09-19T10:50:32;100248.06;;;19.03;68.51
4576;BME280;2300;51.874;8.430;2023-09-19T10:53:02;100256.31;;;18.90;68.61
4576;BME280;2300;51.874;8.430;2023-09-19T10:55:32;100246.44;;;19.21;69.14
4576;BME280;2300;51.874;8.430;2023-09-19T10:58:01;100242.56;;;19.54;68.85
4576;BME280;2300;51.874;8.430;2023-09-19T11:00:30;100243.94;;;19.38;67.65
4576;BME280;2300;51.874;8.430;2023-09-19T11:03:21;100247.09;;;19.32;67.71
4576;BME280;2300;51.874;8.430;2023-09-19T11:06:06;100238.28;;;19.43;68.99
4576;BME280;2300;51.874;8.430;2023-09-19T11:09:06;100242.28;;;19.37;67.44
4576;BME280;2300;51.874;8.430;2023-09-19T11:11:45;100232.16;;;19.27;67.35
4576;BME280;2300;51.874;8.430;2023-09-19T11:14:37;100229.50;;;19.36;66.73
4576;BME280;2300;51.874;8.430;2023-09-19T11:20:22;100227.03;;;19.16;66.83
4576;BME280;2300;51.874;8.430;2023-09-19T11:23:21;100226.84;;;19.63;65.94
4576;BME280;2300;51.874;8.430;2023-09-19T11:25:53;100234.38;;;19.95;65.70
4576;BME280;2300;51.874;8.430;2023-09-19T11:28:33;100222.34;;;20.00;65.43
4576;BME280;2300;51.874;8.430;2023-09-19T11:34:37;100213.09;;;19.86;63.53
4576;BME280;2300;51.874;8.430;2023-09-19T11:40:32;100212.38;;;19.61;65.43
4576;BME280;2300;51.874;8.430;2023-09-19T11:43:30;100208.72;;;19.66;64.40
4576;BME280;2300;51.874;8.430;2023-09-19T11:46:08;100208.06;;;19.88;64.96
4576;BME280;2300;51.874;8.430;2023-09-19T11:48:38;100216.25;;;19.98;64.45
4576;BME280;2300;51.874;8.430;2023-09-19T11:53:43;100221.44;;;20.18;64.08
4576;BME280;2300;51.874;8.430;2023-09-19T11:56:10;100214.44;;;20.34;63.66
4576;BME280;2300;51.874;8.430;2023-09-19T11:58:37;100211.75;;;20.43;63.23
4576;BME280;2300;51.874;8.430;2023-09-19T12:01:05;100221.97;;;20.34;63.30
4576;BME280;2300;51.874;8.430;2023-09-19T12:03:41;100220.66;;;20.59;62.79
4576;BME280;2300;51.874;8.430;2023-09-19T12:06:11;100222.03;;;20.61;62.42
4576;BME280;2300;51.874;8.430;2023-09-19T12:08:41;100224.59;;;20.58;64.05
4576;BME280;2300;51.874;8.430;2023-09-19T12:11:13;100229.66;;;20.56;62.41
4576;BME280;2300;51.874;8.430;2023-09-19T12:13:42;100222.72;;;20.39;62.02
4576;BME280;2300;51.874;8.430;2023-09-19T12:16:14;100218.72;;;20.59;61.71
4576;BME280;2300;51.874;8.430;2023-09-19T12:18:42;100207.63;;;20.40;61.65
4576;BME280;2300;51.874;8.430;2023-09-19T12:21:21;100205.56;;;20.32;62.62
4576;BME280;2300;51.874;8.430;2023-09-19T12:24:04;100205.94;;;20.12;62.63
4576;BME280;2300;51.874;8.430;2023-09-19T12:26:38;100193.69;;;20.40;61.23
4576;BME280;2300;51.874;8.430;2023-09-19T12:29:11;100195.28;;;20.46;60.48
4576;BME280;2300;51.874;8.430;2023-09-19T12:31:47;100198.06;;;20.46;60.30
4576;BME280;2300;51.874;8.430;2023-09-19T12:34:16;100191.56;;;20.51;61.09
4576;BME280;2300;51.874;8.430;2023-09-19T12:36:45;100197.22;;;20.60;60.48
4576;BME280;2300;51.874;8.430;2023-09-19T12:39:22;100204.44;;;20.88;60.84
4576;BME280;2300;51.874;8.430;2023-09-19T12:41:50;100204.22;;;20.84;60.13
4576;BME280;2300;51.874;8.430;2023-09-19T12:44:19;100178.63;;;20.69;59.82
4576;BME280;2300;51.874;8.430;2023-09-19T12:46:45;100186.91;;;20.46;60.04
4576;BME280;2300;51.874;8.430;2023-09-19T12:49:16;100204.13;;;20.76;60.19
4576;BME280;2300;51.874;8.430;2023-09-19T12:51:44;100182.25;;;20.69;60.19
4576;BME280;2300;51.874;8.430;2023-09-19T12:54:11;100183.09;;;20.56;60.53
4576;BME280;2300;51.874;8.430;2023-09-19T12:56:42;100182.31;;;20.37;60.76
4576;BME280;2300;51.874;8.430;2023-09-19T12:59:12;100169.75;;;20.39;61.22
4576;BME280;2300;51.874;8.430;2023-09-19T13:01:39;100160.56;;;20.25;60.80
4576;BME280;2300;51.874;8.430;2023-09-19T13:04:11;100173.75;;;20.33;60.45
4576;BME280;2300;51.874;8.430;2023-09-19T13:06:40;100174.50;;;20.66;60.09
4576;BME280;2300;51.874;8.430;2023-09-19T13:09:08;100177.94;;;20.99;59.56
4576;BME280;2300;51.874;8.430;2023-09-19T13:11:36;100171.78;;;20.75;59.39
4576;BME280;2300;51.874;8.430;2023-09-19T13:14:17;100173.56;;;20.71;60.26
4576;BME280;2300;51.874;8.430;2023-09-19T13:17:01;100158.88;;;20.79;59.90
4576;BME280;2300;51.874;8.430;2023-09-19T13:19:43;100160.03;;;20.64;60.09
4576;BME280;2300;51.874;8.430;2023-09-19T13:22:36;100161.88;;;20.82;59.23
4576;BME280;2300;51.874;8.430;2023-09-19T13:25:03;100160.59;;;21.02;60.01
4576;BME280;2300;51.874;8.430;2023-09-19T13:27:32;100176.38;;;21.07;58.64
4576;BME280;2300;51.874;8.430;2023-09-19T13:29:59;100164.81;;;21.00;58.75
4576;BME280;2300;51.874;8.430;2023-09-19T13:32:26;100163.81;;;21.31;60.10
4576;BME280;2300;51.874;8.430;2023-09-19T13:34:53;100165.78;;;21.31;58.08
4576;BME280;2300;51.874;8.430;2023-09-19T13:37:20;100165.34;;;21.37;57.96
4576;BME280;2300;51.874;8.430;2023-09-19T13:39:47;100161.66;;;21.28;57.29